KFFA/FFA METAR and TAF weather

Enter ICAO airport designator
Station Type Date Time Source
KFFA METAR 2021/05/14 22:55 UTC NOAA

KFFA 142255Z AUTO 00000KT 10SM CLR 16/06 A3022 RMK AO2 T01610059


Station Type Date Time Source
KFFA Decoded METAR 2021/05/14 22:55 UTC NOAA

Kill Devil Hills, First Flight Airport, NC, United States (KFFA) 36-01N 075-40W
May 14, 2021 - 06:55 PM EDT / 2021.05.14 2255 UTC
Wind: Calm:0
Visibility: 10 mile(s):0
Sky conditions: clear
Temperature: 61.0 F (16.1 C)
Dew Point: 42.6 F (5.9 C)
Relative Humidity: 50%
Pressure (altimeter): 30.22 in. Hg (1023 hPa)
ob: KFFA 142255Z AUTO 00000KT 10SM CLR 16/06 A3022 RMK AO2 T01610059
cycle: 23

Station Type Date Time Source
KFFA TAF UTC NOAA

Error!

Example: see airport list